Time;durP1;ratioP1;P1;durP2;ratioP2;P2;SDS_P1;SDS_P2;PMS_P1;PMS_P2;Temp;Humidity;BMP_temperature;BMP_pressure;BME280_temperature;BME280_humidity;BME280_pressure;Samples;Min_cycle;Max_cycle;Signal;HPM_P1;HPM_P2
2023/01/19 00:00:24;;;;;;;16.90;11.10;;;20.10;56.60;;;;;;5082892;28;20056;-75
2023/01/19 00:02:50;;;;;;;19.30;11.18;;;20.10;56.70;;;;;;5086060;28;20395;-75
2023/01/19 00:05:16;;;;;;;17.50;11.68;;;20.10;56.50;;;;;;5084779;28;20028;-75
2023/01/19 00:07:42;;;;;;;19.83;10.60;;;20.10;56.60;;;;;;5086855;28;20463;-75
2023/01/19 00:10:09;;;;;;;15.55;10.77;;;20.10;56.90;;;;;;5085368;28;20111;-75
2023/01/19 00:12:35;;;;;;;16.30;10.63;;;20.10;56.80;;;;;;5086055;28;20045;-73
2023/01/19 00:15:00;;;;;;;16.63;10.48;;;20.10;56.80;;;;;;5085618;28;20110;-74
2023/01/19 00:17:26;;;;;;;17.90;10.90;;;20.10;56.80;;;;;;5086529;28;20113;-75
2023/01/19 00:19:52;;;;;;;17.50;11.18;;;20.10;56.80;;;;;;5086276;28;20115;-75
2023/01/19 00:22:18;;;;;;;19.08;10.73;;;20.10;56.80;;;;;;5086809;28;20035;-75
2023/01/19 00:24:44;;;;;;;16.85;10.68;;;20.10;56.80;;;;;;5086995;28;20483;-74
2023/01/19 00:27:09;;;;;;;17.67;11.38;;;20.10;56.70;;;;;;5085637;28;20060;-75
2023/01/19 00:29:35;;;;;;;16.90;11.13;;;20.10;56.80;;;;;;5087357;28;20033;-75
2023/01/19 00:32:03;;;;;;;18.45;10.85;;;20.20;56.90;;;;;;5082020;28;20040;-74
2023/01/19 00:34:38;;;;;;;16.25;11.15;;;20.20;57.00;;;;;;5090126;28;20444;-75
2023/01/19 00:37:05;;;;;;;27.35;11.23;;;20.20;56.90;;;;;;5085623;28;20032;-74
2023/01/19 00:39:31;;;;;;;16.27;10.85;;;20.10;57.00;;;;;;5085227;28;20020;-76
2023/01/19 00:44:41;;;;;;;19.42;11.00;;;20.10;57.10;;;;;;5081679;28;20051;-75
2023/01/19 00:47:07;;;;;;;18.70;11.20;;;20.20;57.10;;;;;;5069051;28;20454;-75
2023/01/19 00:49:33;;;;;;;17.67;11.13;;;20.10;57.10;;;;;;5083118;28;20038;-75
2023/01/19 00:51:59;;;;;;;14.57;10.73;;;20.20;57.20;;;;;;5086762;28;20025;-74
2023/01/19 00:54:24;;;;;;;18.02;10.85;;;20.20;57.20;;;;;;5088602;28;20032;-74
2023/01/19 00:56:50;;;;;;;17.42;11.30;;;20.10;57.10;;;;;;5087532;28;20127;-75
2023/01/19 00:59:16;;;;;;;16.58;10.65;;;20.10;57.20;;;;;;5088890;28;20085;-72
2023/01/19 01:01:42;;;;;;;16.83;10.70;;;20.10;57.20;;;;;;5087953;28;20081;-75
2023/01/19 01:04:07;;;;;;;17.48;10.57;;;20.10;57.30;;;;;;5089241;28;20024;-74
2023/01/19 01:06:33;;;;;;;16.20;10.48;;;20.10;57.30;;;;;;5090309;28;20081;-74
2023/01/19 01:08:59;;;;;;;19.00;10.63;;;20.10;57.60;;;;;;5088769;28;20483;-75
2023/01/19 01:11:33;;;;;;;15.30;10.18;;;20.10;57.30;;;;;;5109200;28;20030;-74
2023/01/19 01:13:59;;;;;;;20.35;10.80;;;20.10;57.40;;;;;;5089827;28;20059;-74
2023/01/19 01:16:25;;;;;;;16.35;10.85;;;20.10;57.50;;;;;;5107853;28;20028;-74
2023/01/19 01:18:50;;;;;;;16.67;10.25;;;20.10;57.40;;;;;;5086469;28;20028;-75
2023/01/19 01:21:16;;;;;;;16.88;10.90;;;20.10;57.10;;;;;;5085727;28;20028;-75
2023/01/19 01:23:42;;;;;;;29.98;11.23;;;20.10;56.80;;;;;;5087821;28;20020;-75
2023/01/19 01:26:07;;;;;;;16.95;10.70;;;20.10;56.70;;;;;;5070204;28;20028;-75
2023/01/19 01:28:34;;;;;;;17.75;10.75;;;20.10;56.70;;;;;;5088119;28;20133;-75
2023/01/19 01:30:59;;;;;;;20.17;11.35;;;20.10;56.60;;;;;;5087192;28;20024;-76
2023/01/19 01:33:26;;;;;;;15.52;10.20;;;20.20;57.20;;;;;;5090788;28;20028;-75
2023/01/19 01:35:52;;;;;;;22.30;11.02;;;20.20;56.60;;;;;;5092205;28;20050;-77
2023/01/19 01:38:18;;;;;;;20.88;10.93;;;20.10;56.60;;;;;;5092171;28;20042;-76
2023/01/19 01:40:44;;;;;;;18.15;11.27;;;20.10;56.90;;;;;;5091711;28;20029;-75
2023/01/19 01:43:15;;;;;;;18.77;10.85;;;20.20;57.00;;;;;;5091123;28;20040;-76
2023/01/19 01:45:41;;;;;;;18.08;11.05;;;20.10;57.10;;;;;;5091766;28;20265;-76
2023/01/19 01:48:27;;;;;;;19.60;10.75;;;20.20;57.20;;;;;;5070282;28;20032;-75
2023/01/19 01:51:22;;;;;;;15.23;10.50;;;20.20;57.20;;;;;;5084296;28;20038;-76
2023/01/19 01:53:52;;;;;;;18.20;11.30;;;20.20;57.30;;;;;;5091957;28;20063;-76
2023/01/19 01:56:23;;;;;;;21.42;10.50;;;20.10;57.30;;;;;;5090880;28;20105;-75
2023/01/19 01:58:49;;;;;;;17.63;10.38;;;20.20;57.30;;;;;;5091864;28;20032;-75
2023/01/19 02:03:59;;;;;;;20.55;11.73;;;20.10;57.30;;;;;;5072978;28;20082;-76
2023/01/19 02:06:25;;;;;;;21.60;11.30;;;20.20;57.30;;;;;;5089238;28;20024;-74
2023/01/19 02:14:31;;;;;;;24.15;12.18;;;20.20;57.50;;;;;;5073344;28;20066;-75
2023/01/19 02:16:57;;;;;;;23.52;12.32;;;20.20;57.00;;;;;;5111348;28;20024;-74
2023/01/19 02:19:40;;;;;;;22.95;12.07;;;20.20;56.90;;;;;;5111103;28;20036;-74
2023/01/19 02:22:19;;;;;;;26.77;12.48;;;20.20;56.90;;;;;;5088568;28;20027;-74
2023/01/19 02:24:45;;;;;;;23.17;12.13;;;20.10;57.10;;;;;;5080505;28;20753;-74
2023/01/19 02:27:11;;;;;;;23.40;13.82;;;20.20;57.10;;;;;;5089779;28;20041;-74
2023/01/19 02:29:38;;;;;;;24.85;12.15;;;20.10;56.90;;;;;;5089849;28;20039;-75
2023/01/19 02:32:04;;;;;;;24.08;12.38;;;20.20;57.00;;;;;;5082553;28;20392;-74
2023/01/19 02:34:31;;;;;;;24.52;12.43;;;20.20;57.00;;;;;;5083285;28;20399;-74
2023/01/19 02:37:17;;;;;;;23.00;12.20;;;20.20;57.00;;;;;;5087403;28;20094;-74
2023/01/19 02:39:55;;;;;;;26.42;12.77;;;20.10;56.80;;;;;;5079179;28;20020;-74
2023/01/19 02:42:32;;;;;;;24.55;12.15;;;20.20;56.90;;;;;;5086490;28;20035;-74
2023/01/19 02:44:58;;;;;;;22.85;12.45;;;20.10;56.90;;;;;;5087651;28;20024;-74
2023/01/19 02:47:24;;;;;;;25.35;12.70;;;20.20;57.20;;;;;;5088914;28;20043;-74
2023/01/19 02:49:57;;;;;;;24.40;12.05;;;20.20;56.90;;;;;;5088326;28;20116;-74
2023/01/19 02:52:24;;;;;;;21.40;11.43;;;20.10;57.00;;;;;;5089261;28;20056;-75
2023/01/19 02:55:18;;;;;;;26.00;11.68;;;20.10;56.70;;;;;;5088376;28;20035;-74
2023/01/19 02:57:59;;;;;;;23.63;11.82;;;20.10;56.70;;;;;;5088175;28;20047;-74
2023/01/19 03:00:52;;;;;;;23.90;12.32;;;20.10;56.70;;;;;;5089389;28;20027;-74
2023/01/19 03:03:29;;;;;;;23.05;12.38;;;20.10;56.80;;;;;;5076477;28;20031;-74
2023/01/19 03:06:16;;;;;;;21.55;12.38;;;20.10;57.50;;;;;;5088241;28;20032;-74
2023/01/19 03:08:54;;;;;;;24.40;12.50;;;20.10;57.50;;;;;;5088219;28;20110;-74
2023/01/19 03:11:24;;;;;;;24.15;13.35;;;20.10;57.50;;;;;;5089355;28;20181;-74
2023/01/19 03:13:59;;;;;;;24.67;13.02;;;20.10;57.40;;;;;;5087797;28;20035;-75
2023/01/19 03:16:34;;;;;;;24.75;12.00;;;20.10;57.60;;;;;;5089173;28;20032;-74
2023/01/19 03:19:30;;;;;;;23.92;12.25;;;20.10;56.90;;;;;;5071906;28;20027;-74
2023/01/19 03:22:10;;;;;;;20.63;11.80;;;20.10;57.20;;;;;;5087888;28;20357;-74
2023/01/19 03:24:40;;;;;;;25.17;11.48;;;20.10;57.20;;;;;;5088123;28;20073;-74
2023/01/19 03:27:12;;;;;;;23.52;11.02;;;20.10;57.00;;;;;;5090063;28;20032;-74
2023/01/19 03:29:44;;;;;;;23.85;11.82;;;20.10;57.70;;;;;;5072815;28;20040;-75
2023/01/19 03:32:15;;;;;;;21.20;11.27;;;20.10;57.10;;;;;;5088693;28;20028;-73
2023/01/19 03:34:42;;;;;;;24.50;11.95;;;20.10;56.90;;;;;;5087224;28;20467;-74
2023/01/19 03:37:12;;;;;;;21.00;11.25;;;20.10;56.70;;;;;;5086538;28;20454;-74
2023/01/19 03:39:38;;;;;;;;;;;20.10;56.70;;;;;;5086347;28;20470;-74
2023/01/19 03:42:09;;;;;;;22.98;10.23;;;20.20;56.70;;;;;;5086440;28;19912;-74
2023/01/19 03:44:39;;;;;;;22.30;10.80;;;20.10;56.60;;;;;;5080390;28;20048;-74
2023/01/19 03:47:07;;;;;;;22.23;10.32;;;20.20;56.60;;;;;;5088219;28;20058;-74
2023/01/19 03:49:35;;;;;;;21.08;10.48;;;20.20;57.10;;;;;;5087685;28;20024;-74
2023/01/19 03:52:01;;;;;;;20.50;10.85;;;20.20;56.70;;;;;;5089096;28;20038;-74
2023/01/19 03:54:27;;;;;;;19.35;10.15;;;20.10;56.70;;;;;;5088149;28;20032;-74
2023/01/19 03:56:53;;;;;;;20.70;10.32;;;20.10;56.50;;;;;;5085932;28;20108;-74
2023/01/19 03:59:20;;;;;;;18.98;10.02;;;20.10;56.60;;;;;;5087189;28;20032;-74
2023/01/19 04:01:47;;;;;;;17.63;10.02;;;20.10;56.60;;;;;;5089637;28;20522;-74
2023/01/19 04:04:14;;;;;;;19.98;10.13;;;20.10;56.60;;;;;;5087704;28;20024;-74
2023/01/19 04:06:40;;;;;;;20.77;10.38;;;20.10;57.20;;;;;;5082918;28;20029;-74
2023/01/19 04:09:07;;;;;;;23.25;9.85;;;20.10;56.70;;;;;;5074140;28;20099;-74
2023/01/19 04:11:32;;;;;;;19.95;10.02;;;20.00;56.80;;;;;;5086023;28;20024;-74
2023/01/19 04:13:58;;;;;;;19.95;9.82;;;20.00;56.80;;;;;;5088612;28;20031;-74
2023/01/19 04:16:24;;;;;;;19.52;9.63;;;20.10;57.20;;;;;;5085983;28;20081;-73
2023/01/19 04:18:51;;;;;;;19.02;9.60;;;20.00;57.00;;;;;;5089223;28;20464;-74
2023/01/19 04:21:19;;;;;;;19.95;10.18;;;20.00;57.20;;;;;;5086263;28;20052;-74
2023/01/19 04:23:45;;;;;;;21.67;10.52;;;20.00;57.00;;;;;;5087145;28;20020;-74
2023/01/19 04:26:11;;;;;;;22.95;9.35;;;20.00;57.30;;;;;;5085566;28;20031;-73
2023/01/19 04:28:38;;;;;;;19.80;9.43;;;20.00;57.30;;;;;;5086869;28;20115;-74
2023/01/19 04:31:05;;;;;;;23.58;9.98;;;20.00;57.10;;;;;;5087182;28;20028;-74
2023/01/19 04:33:31;;;;;;;18.48;9.52;;;20.00;57.20;;;;;;5090189;28;20036;-74
2023/01/19 04:35:58;;;;;;;18.88;9.02;;;20.00;58.10;;;;;;5088234;28;20027;-75
2023/01/19 04:38:24;;;;;;;19.40;9.20;;;20.00;57.50;;;;;;5091298;28;20028;-75
2023/01/19 04:40:51;;;;;;;17.52;8.95;;;20.00;57.40;;;;;;5091850;28;20376;-75
2023/01/19 04:43:18;;;;;;;17.90;9.15;;;20.00;57.10;;;;;;5090877;28;20387;-75
2023/01/19 04:45:45;;;;;;;17.52;8.93;;;20.00;57.50;;;;;;5087569;28;20112;-75
2023/01/19 04:48:12;;;;;;;20.17;9.00;;;20.00;57.10;;;;;;5086676;28;20514;-74
2023/01/19 04:50:38;;;;;;;18.10;9.95;;;20.00;57.40;;;;;;5086537;28;20028;-74
2023/01/19 04:53:03;;;;;;;23.10;9.38;;;20.00;57.20;;;;;;5087978;28;20042;-74
2023/01/19 04:55:29;;;;;;;17.23;8.93;;;20.00;57.00;;;;;;5085832;28;20028;-74
2023/01/19 04:57:55;;;;;;;19.40;9.70;;;20.00;56.90;;;;;;5087676;28;20108;-74
2023/01/19 05:00:22;;;;;;;18.02;8.93;;;19.90;56.90;;;;;;5086896;28;20028;-74
2023/01/19 05:02:48;;;;;;;15.38;8.43;;;20.00;57.00;;;;;;5085055;28;20503;-74
2023/01/19 05:05:15;;;;;;;19.33;9.05;;;20.00;56.90;;;;;;5064850;28;20016;-74
2023/01/19 05:07:41;;;;;;;17.40;8.93;;;20.00;57.00;;;;;;5084594;28;20061;-74
2023/01/19 05:10:08;;;;;;;19.45;8.13;;;20.00;57.00;;;;;;5088815;28;20124;-74
2023/01/19 05:12:35;;;;;;;19.75;8.85;;;20.00;57.00;;;;;;5072092;28;20043;-75
2023/01/19 05:15:01;;;;;;;15.60;7.97;;;19.90;56.90;;;;;;5091989;28;20051;-75
2023/01/19 05:17:27;;;;;;;12.98;7.50;;;20.00;57.00;;;;;;5090193;28;20480;-74
2023/01/19 05:19:52;;;;;;;16.77;8.00;;;20.00;57.00;;;;;;5091343;28;20550;-75
2023/01/19 05:22:18;;;;;;;16.52;8.23;;;20.00;56.90;;;;;;5090940;28;20029;-75
2023/01/19 05:24:44;;;;;;;17.35;8.52;;;20.00;57.00;;;;;;5091219;28;20039;-75
2023/01/19 05:27:10;;;;;;;14.93;8.43;;;19.90;56.90;;;;;;5094604;28;20028;-76
2023/01/19 05:29:36;;;;;;;15.63;8.18;;;20.00;57.00;;;;;;5089385;28;20476;-75
2023/01/19 05:32:02;;;;;;;16.17;7.93;;;20.00;57.00;;;;;;5091339;28;20030;-75
2023/01/19 05:34:28;;;;;;;18.48;9.15;;;20.00;57.10;;;;;;5091139;28;20089;-75
2023/01/19 05:36:53;;;;;;;16.05;8.23;;;19.90;57.00;;;;;;5089038;28;20066;-76
2023/01/19 05:39:19;;;;;;;18.05;8.07;;;20.00;57.00;;;;;;5086997;28;20025;-75
2023/01/19 05:41:45;;;;;;;16.88;7.82;;;19.90;57.00;;;;;;5087841;28;20021;-75
2023/01/19 05:44:11;;;;;;;19.25;8.73;;;20.00;57.00;;;;;;5084717;28;20107;-75
2023/01/19 05:46:38;;;;;;;17.60;8.32;;;19.90;56.90;;;;;;5088950;28;20020;-75
2023/01/19 05:49:06;;;;;;;17.58;8.25;;;20.00;56.90;;;;;;5089927;28;20035;-75
2023/01/19 05:51:37;;;;;;;16.10;8.10;;;20.00;56.90;;;;;;5090642;28;20146;-76
2023/01/19 05:54:07;;;;;;;16.35;8.43;;;20.00;57.20;;;;;;5086206;28;20050;-74
2023/01/19 05:56:34;;;;;;;16.42;8.30;;;19.90;57.00;;;;;;5076529;28;20048;-74
2023/01/19 05:59:01;;;;;;;14.70;8.05;;;19.90;57.00;;;;;;5071537;28;20115;-75
2023/01/19 06:01:27;;;;;;;19.00;8.52;;;19.90;57.00;;;;;;5090856;28;20038;-74
2023/01/19 06:03:53;;;;;;;13.35;6.78;;;19.90;57.00;;;;;;5090059;28;20091;-74
2023/01/19 06:06:18;;;;;;;15.40;8.20;;;19.90;57.20;;;;;;5089576;28;20068;-74
2023/01/19 06:08:44;;;;;;;13.70;7.43;;;19.90;57.10;;;;;;5090004;28;20074;-74
2023/01/19 06:11:11;;;;;;;15.38;8.18;;;19.90;57.00;;;;;;5087202;28;20496;-75
2023/01/19 06:13:38;;;;;;;17.05;7.70;;;19.90;57.10;;;;;;5089775;28;20034;-75
2023/01/19 06:16:06;;;;;;;14.68;8.15;;;19.90;57.20;;;;;;5090100;28;20119;-75
2023/01/19 06:18:31;;;;;;;17.30;7.88;;;19.90;57.00;;;;;;5064180;28;20728;-75
2023/01/19 06:20:57;;;;;;;17.75;7.57;;;19.90;56.80;;;;;;5087382;28;20028;-75
2023/01/19 06:23:28;;;;;;;14.40;7.13;;;19.90;56.90;;;;;;5090014;28;20032;-75
2023/01/19 06:25:54;;;;;;;16.63;7.47;;;19.90;57.00;;;;;;5089283;28;20024;-75
2023/01/19 06:28:21;;;;;;;15.25;7.20;;;19.90;57.80;;;;;;5089246;28;20051;-75
2023/01/19 06:30:51;;;;;;;13.88;7.43;;;19.90;57.20;;;;;;5090419;28;20470;-75
2023/01/19 06:33:17;;;;;;;;;;;19.90;56.90;;;;;;5089991;28;20694;-75
2023/01/19 06:35:47;;;;;;;13.70;7.05;;;19.90;56.90;;;;;;5088373;28;19951;-74
2023/01/19 06:38:13;;;;;;;14.43;6.70;;;19.90;56.90;;;;;;5073775;28;20082;-74
2023/01/19 06:40:42;;;;;;;13.88;7.22;;;19.90;57.00;;;;;;5083528;28;20063;-74
2023/01/19 06:43:08;;;;;;;14.32;6.78;;;19.90;56.80;;;;;;5085471;28;20050;-74
2023/01/19 06:45:34;;;;;;;13.25;7.35;;;19.90;57.10;;;;;;5088115;28;20519;-74
2023/01/19 06:48:00;;;;;;;16.52;7.72;;;19.90;56.80;;;;;;5089798;28;20480;-74
2023/01/19 06:50:26;;;;;;;12.55;6.53;;;19.90;57.10;;;;;;5088016;28;20028;-74
2023/01/19 06:52:52;;;;;;;13.38;7.18;;;19.90;57.00;;;;;;5089740;28;20032;-75
2023/01/19 06:55:18;;;;;;;13.95;7.00;;;19.90;56.80;;;;;;5089259;28;20036;-74
2023/01/19 06:57:44;;;;;;;16.25;7.60;;;19.90;57.40;;;;;;5089336;28;20372;-74
2023/01/19 07:00:12;;;;;;;13.77;6.95;;;19.80;56.80;;;;;;5086354;28;20024;-74
2023/01/19 07:02:42;;;;;;;13.35;7.22;;;19.80;57.20;;;;;;5069482;28;20392;-74
2023/01/19 07:05:08;;;;;;;;;;;19.80;57.00;;;;;;5079167;28;20028;-74
2023/01/19 07:07:34;;;;;;;16.33;7.40;;;19.80;56.90;;;;;;5085786;28;19912;-74
2023/01/19 07:10:00;;;;;;;16.73;6.95;;;19.80;56.90;;;;;;5080769;28;20031;-74
2023/01/19 07:12:26;;;;;;;12.40;7.15;;;19.90;57.00;;;;;;5087740;28;20031;-74
2023/01/19 07:14:51;;;;;;;14.18;6.70;;;19.80;57.00;;;;;;5087688;28;20040;-75
2023/01/19 07:17:18;;;;;;;13.73;7.32;;;19.90;57.10;;;;;;5087402;28;20043;-74
2023/01/19 07:19:45;;;;;;;12.68;6.28;;;20.00;57.00;;;;;;5069428;28;20460;-74
2023/01/19 07:22:11;;;;;;;12.57;7.15;;;20.00;57.00;;;;;;5089593;28;20068;-80
2023/01/19 07:24:36;;;;;;;15.63;7.97;;;20.00;57.30;;;;;;5089267;28;20048;-81
2023/01/19 07:27:03;;;;;;;17.00;9.05;;;19.80;51.00;;;;;;5088673;28;20479;-81
2023/01/19 07:29:29;;;;;;;15.35;9.10;;;19.30;41.40;;;;;;5089935;28;20030;-81
2023/01/19 07:31:55;;;;;;;19.17;8.82;;;18.90;39.80;;;;;;5088477;28;20271;-80
2023/01/19 07:34:21;;;;;;;15.90;8.32;;;19.00;42.40;;;;;;5085323;28;20450;-80
2023/01/19 07:36:47;;;;;;;14.55;7.53;;;19.10;44.00;;;;;;5088684;28;20028;-80
2023/01/19 07:39:13;;;;;;;21.70;7.05;;;19.20;46.10;;;;;;5086272;28;20040;-81
2023/01/19 07:41:40;;;;;;;11.00;6.45;;;19.40;47.20;;;;;;5087930;28;20096;-81
2023/01/19 07:44:07;;;;;;;11.07;6.05;;;19.50;49.00;;;;;;5087302;28;20494;-82
2023/01/19 07:46:33;;;;;;;13.93;6.32;;;19.50;48.80;;;;;;5070443;28;20111;-82
2023/01/19 07:48:59;;;;;;;11.57;5.97;;;19.60;49.00;;;;;;5087027;28;20111;-80
2023/01/19 07:51:26;;;;;;;12.75;6.35;;;19.70;49.20;;;;;;5089438;28;20024;-81
2023/01/19 07:53:52;;;;;;;12.88;6.00;;;19.70;49.80;;;;;;5086129;28;20122;-79
2023/01/19 07:56:18;;;;;;;15.15;5.82;;;19.80;49.80;;;;;;5085977;28;20099;-79
2023/01/19 07:58:44;;;;;;;11.30;5.53;;;19.80;50.00;;;;;;5087531;28;20048;-78
2023/01/19 08:01:12;;;;;;;12.48;5.32;;;19.80;50.10;;;;;;5085385;28;20463;-79
2023/01/19 08:03:38;;;;;;;16.00;5.55;;;19.80;50.30;;;;;;5086076;28;20018;-78
2023/01/19 08:06:04;;;;;;;10.45;5.60;;;19.80;50.50;;;;;;5086759;28;20058;-79
2023/01/19 08:08:32;;;;;;;9.65;5.22;;;19.90;50.60;;;;;;5089188;28;20024;-79
2023/01/19 08:11:00;;;;;;;;;;;19.90;50.80;;;;;;5085480;28;20438;-79
2023/01/19 08:13:26;;;;;;;12.77;4.80;;;19.90;51.00;;;;;;5070546;28;19912;-79
2023/01/19 08:15:53;;;;;;;11.27;4.78;;;19.90;51.30;;;;;;5085994;28;20039;-79
2023/01/19 08:18:19;;;;;;;9.55;5.05;;;19.90;51.20;;;;;;5086289;28;20035;-78
2023/01/19 08:20:45;;;;;;;11.40;4.60;;;19.90;51.50;;;;;;5088385;28;20032;-81
2023/01/19 08:23:11;;;;;;;9.70;4.80;;;19.90;51.70;;;;;;5087989;28;20468;-80
2023/01/19 08:25:43;;;;;;;12.38;5.32;;;19.90;51.80;;;;;;5049975;28;20408;-80
2023/01/19 08:28:10;;;;;;;10.55;4.85;;;19.90;52.10;;;;;;5070352;28;20056;-80
2023/01/19 08:30:37;;;;;;;9.98;5.10;;;19.80;52.60;;;;;;5087041;28;20395;-80
2023/01/19 08:33:03;;;;;;;8.68;4.72;;;19.90;52.80;;;;;;5088644;28;20051;-78
2023/01/19 08:35:33;;;;;;;12.23;5.03;;;19.90;53.10;;;;;;5084601;28;20016;-78
2023/01/19 08:38:02;;;;;;;10.20;4.80;;;19.90;52.50;;;;;;5088500;28;20464;-78
2023/01/19 08:40:36;;;;;;;8.90;4.60;;;19.90;53.40;;;;;;5086193;28;20399;-79
2023/01/19 08:43:08;;;;;;;8.65;4.32;;;19.90;53.20;;;;;;5087624;28;20028;-79
2023/01/19 08:45:36;;;;;;;9.13;4.35;;;19.90;54.20;;;;;;5083320;28;20013;-79
2023/01/19 08:48:02;;;;;;;11.20;4.47;;;19.90;53.10;;;;;;5087118;28;20029;-78
2023/01/19 08:50:29;;;;;;;11.02;5.00;;;19.90;52.60;;;;;;5066924;28;20043;-79
2023/01/19 08:52:57;;;;;;;11.60;4.60;;;19.90;52.80;;;;;;5066922;28;20131;-78
2023/01/19 08:55:23;;;;;;;10.82;4.55;;;19.90;52.60;;;;;;5081552;28;20024;-79
2023/01/19 08:57:53;;;;;;;9.13;4.35;;;19.90;53.40;;;;;;5085192;28;20385;-80
2023/01/19 09:00:20;;;;;;;8.98;4.43;;;19.90;53.00;;;;;;5085216;28;20024;-79
2023/01/19 09:02:46;;;;;;;10.63;4.95;;;19.90;52.80;;;;;;5067320;28;20369;-80
2023/01/19 09:05:13;;;;;;;10.57;4.68;;;19.90;52.70;;;;;;5086287;28;20024;-82
2023/01/19 09:07:38;;;;;;;11.93;4.75;;;19.90;53.00;;;;;;5088717;28;20464;-81
2023/01/19 09:10:05;;;;;;;10.82;4.78;;;19.90;54.00;;;;;;5087897;28;20028;-82
2023/01/19 09:12:31;;;;;;;8.95;4.57;;;19.90;53.40;;;;;;5085309;28;20036;-82
2023/01/19 09:14:57;;;;;;;10.10;5.10;;;19.90;53.70;;;;;;5086208;28;20067;-82
2023/01/19 09:17:23;;;;;;;9.27;4.60;;;19.90;53.80;;;;;;5087501;28;20024;-81
2023/01/19 09:19:48;;;;;;;9.52;4.45;;;19.90;53.20;;;;;;5085734;28;20020;-81
2023/01/19 09:22:14;;;;;;;9.20;4.72;;;19.90;54.40;;;;;;5086679;28;20069;-81
2023/01/19 09:24:40;;;;;;;12.50;4.82;;;19.90;53.30;;;;;;5087641;28;20065;-80
2023/01/19 09:27:06;;;;;;;12.45;4.80;;;19.90;53.20;;;;;;5095463;28;20020;-80
2023/01/19 09:29:31;;;;;;;11.43;4.90;;;19.90;53.20;;;;;;5084718;22;20910;-73
2023/01/19 09:31:57;;;;;;;9.80;4.82;;;19.90;53.20;;;;;;5026134;28;20041;-73
2023/01/19 09:34:24;;;;;;;11.30;4.80;;;19.90;53.30;;;;;;5023839;28;20025;-73
2023/01/19 09:36:51;;;;;;;9.57;4.38;;;19.90;54.00;;;;;;5026625;28;20017;-72
2023/01/19 09:39:17;;;;;;;10.07;4.78;;;19.90;55.40;;;;;;5024129;28;20025;-73
2023/01/19 09:41:50;;;;;;;9.07;4.30;;;19.90;54.20;;;;;;5027354;28;20064;-73
2023/01/19 09:44:23;;;;;;;8.68;4.32;;;19.90;53.70;;;;;;5017685;28;20145;-72
2023/01/19 09:46:49;;;;;;;10.10;4.13;;;19.90;53.80;;;;;;5033888;28;20030;-73
2023/01/19 09:49:18;;;;;;;10.20;4.72;;;19.90;53.60;;;;;;5026980;28;20086;-73
2023/01/19 09:51:45;;;;;;;;;;;19.90;53.40;;;;;;5034700;28;20025;-73
2023/01/19 09:54:34;;;;;;;12.25;4.88;;;20.00;53.30;;;;;;5024729;28;20452;-72
2023/01/19 09:57:00;;;;;;;12.85;4.70;;;19.90;53.20;;;;;;5030674;28;20022;-73
2023/01/19 09:59:30;;;;;;;10.07;5.05;;;19.90;53.30;;;;;;5020936;28;20037;-73
2023/01/19 10:02:23;;;;;;;9.50;4.70;;;20.00;53.50;;;;;;5024745;28;20052;-73
2023/01/19 10:04:59;;;;;;;9.30;4.82;;;19.90;54.00;;;;;;5012934;28;20814;-73
2023/01/19 10:08:02;;;;;;;10.95;4.53;;;20.00;53.90;;;;;;5043014;28;20084;-73
2023/01/19 10:10:30;;;;;;;10.82;4.57;;;20.00;53.80;;;;;;5004627;28;20036;-73
2023/01/19 10:13:26;;;;;;;10.85;4.68;;;20.00;53.90;;;;;;5029522;28;20035;-73
2023/01/19 10:16:02;;;;;;;9.57;4.38;;;20.00;54.10;;;;;;5029929;28;20563;-74
2023/01/19 10:18:44;;;;;;;10.38;4.55;;;19.90;54.10;;;;;;5021079;28;20055;-74
2023/01/19 10:21:36;;;;;;;11.43;4.70;;;20.00;54.20;;;;;;5028229;28;20109;-73
2023/01/19 10:24:19;;;;;;;7.72;4.22;;;19.90;54.20;;;;;;5030174;28;20025;-74
2023/01/19 10:26:48;;;;;;;8.63;4.25;;;19.90;54.10;;;;;;5012615;28;20423;-75
2023/01/19 10:29:25;;;;;;;8.95;4.53;;;20.00;54.20;;;;;;5029637;28;20431;-74
2023/01/19 10:31:56;;;;;;;9.82;4.35;;;20.00;54.40;;;;;;5031585;28;20041;-73
2023/01/19 10:34:22;;;;;;;11.93;4.50;;;20.00;54.90;;;;;;5031240;28;20025;-73
2023/01/19 10:36:54;;;;;;;11.90;4.55;;;20.00;55.10;;;;;;5034294;28;20034;-73
2023/01/19 10:39:20;;;;;;;8.88;4.28;;;20.00;55.10;;;;;;5025938;28;20034;-73
2023/01/19 10:41:51;;;;;;;10.20;4.47;;;20.00;55.80;;;;;;5031969;28;20053;-73
2023/01/19 10:44:27;;;;;;;10.68;4.93;;;20.00;56.00;;;;;;5024005;28;20021;-75
2023/01/19 10:46:55;;;;;;;11.43;4.70;;;20.00;55.80;;;;;;5026516;28;20049;-75
2023/01/19 10:49:34;;;;;;;11.60;4.68;;;20.00;55.60;;;;;;5027010;28;20022;-76
2023/01/19 10:52:01;;;;;;;11.00;4.47;;;20.10;56.80;;;;;;5011283;28;20030;-74
2023/01/19 10:54:29;;;;;;;18.25;4.88;;;20.10;55.20;;;;;;4993874;28;20030;-74
2023/01/19 10:57:07;;;;;;;9.23;4.80;;;20.20;58.10;;;;;;5049075;28;20025;-75
2023/01/19 10:59:45;;;;;;;10.75;4.78;;;20.20;56.90;;;;;;5050108;28;20032;-72
2023/01/19 11:02:18;;;;;;;12.80;4.90;;;20.10;54.80;;;;;;5025445;28;20060;-73
2023/01/19 11:04:47;;;;;;;14.23;5.25;;;20.00;54.80;;;;;;5012997;28;20034;-76
2023/01/19 11:07:27;;;;;;;13.73;6.07;;;20.00;54.40;;;;;;5033521;28;20360;-77
2023/01/19 11:10:27;;;;;;;15.95;5.97;;;20.00;55.50;;;;;;5032769;28;20108;-75
2023/01/19 11:12:59;;;;;;;17.02;6.00;;;20.10;55.40;;;;;;4997915;28;20513;-76
2023/01/19 11:15:58;;;;;;;17.00;5.22;;;20.10;54.50;;;;;;5036148;28;20032;-75
2023/01/19 11:18:30;;;;;;;20.60;5.18;;;20.10;53.90;;;;;;5034006;28;20069;-75
2023/01/19 11:21:05;;;;;;;14.98;5.20;;;20.10;54.30;;;;;;5033070;28;20034;-76
2023/01/19 11:23:33;;;;;;;13.13;5.55;;;20.10;55.10;;;;;;5029580;28;20107;-76
2023/01/19 11:26:00;;;;;;;15.77;4.82;;;20.20;54.60;;;;;;5028636;28;20060;-75
2023/01/19 11:28:34;;;;;;;14.13;4.80;;;20.20;55.10;;;;;;5027810;28;20025;-76
2023/01/19 11:31:15;;;;;;;13.88;4.85;;;20.20;55.30;;;;;;5029440;28;20083;-74
2023/01/19 11:33:51;;;;;;;15.75;5.10;;;20.20;55.70;;;;;;5033793;28;20041;-80
2023/01/19 11:36:20;;;;;;;20.98;5.10;;;20.20;55.50;;;;;;5015719;28;20029;-79
2023/01/19 11:38:49;;;;;;;12.38;4.72;;;20.20;55.70;;;;;;5029678;28;20057;-77
2023/01/19 11:41:23;;;;;;;13.20;4.88;;;20.20;55.80;;;;;;5012642;28;20610;-76
2023/01/19 11:43:53;;;;;;;16.27;5.50;;;20.20;56.20;;;;;;5029561;28;20033;-74
2023/01/19 11:46:21;;;;;;;18.15;4.78;;;20.30;56.50;;;;;;5027735;28;20508;-76
2023/01/19 11:49:03;;;;;;;19.77;5.25;;;20.20;56.90;;;;;;5029286;28;20029;-74
2023/01/19 11:51:51;;;;;;;22.40;5.50;;;20.30;58.10;;;;;;5028554;28;20026;-77
2023/01/19 11:54:22;;;;;;;12.40;5.32;;;20.30;58.00;;;;;;5029421;28;20052;-75
2023/01/19 11:56:50;;;;;;;16.88;6.47;;;20.30;58.50;;;;;;5029373;28;20033;-75
2023/01/19 11:59:17;;;;;;;19.52;5.50;;;20.20;56.40;;;;;;5025143;28;20497;-72
2023/01/19 12:01:57;;;;;;;17.42;8.55;;;20.10;56.30;;;;;;5014535;28;20088;-73
2023/01/19 12:04:29;;;;;;;25.30;9.55;;;20.10;56.80;;;;;;5024775;28;20029;-73
2023/01/19 12:06:58;;;;;;;19.50;9.57;;;20.20;57.20;;;;;;5018883;28;20078;-75
2023/01/19 12:09:28;;;;;;;25.20;10.73;;;20.20;56.10;;;;;;5021275;28;20494;-74
2023/01/19 12:12:02;;;;;;;19.92;10.05;;;20.10;55.70;;;;;;5025936;28;20120;-74
2023/01/19 12:14:38;;;;;;;17.05;9.85;;;20.20;55.50;;;;;;5023724;28;20140;-73
2023/01/19 12:17:08;;;;;;;17.67;9.63;;;20.20;56.00;;;;;;5040742;28;20485;-73
2023/01/19 12:20:14;;;;;;;25.90;10.85;;;20.10;56.10;;;;;;5028632;28;20036;-73
2023/01/19 12:22:49;;;;;;;19.98;10.63;;;20.20;56.50;;;;;;5016815;28;20038;-74
2023/01/19 12:25:21;;;;;;;29.65;11.50;;;20.30;56.80;;;;;;5023934;28;20021;-73
2023/01/19 12:27:49;;;;;;;17.65;9.27;;;20.20;56.30;;;;;;5026770;28;20025;-73
2023/01/19 12:30:22;;;;;;;20.08;9.75;;;20.20;56.30;;;;;;5028379;28;20032;-73
2023/01/19 12:32:50;;;;;;;17.88;9.38;;;20.20;56.20;;;;;;4994847;28;20048;-73
2023/01/19 12:35:53;;;;;;;23.25;10.80;;;20.10;55.90;;;;;;5024856;28;20386;-74
2023/01/19 12:38:51;;;;;;;19.27;10.05;;;20.10;55.50;;;;;;5023477;28;20073;-73
2023/01/19 12:41:27;;;;;;;19.33;9.73;;;20.10;55.50;;;;;;5026468;28;20037;-74
2023/01/19 12:44:13;;;;;;;25.20;9.85;;;20.10;55.90;;;;;;5027499;28;20109;-75
2023/01/19 12:47:15;;;;;;;20.45;9.25;;;20.10;55.80;;;;;;5028042;28;20025;-74
2023/01/19 12:49:43;;;;;;;17.10;9.32;;;20.10;55.80;;;;;;5027218;28;20375;-74
2023/01/19 12:52:32;;;;;;;20.50;9.23;;;20.10;55.80;;;;;;5028664;28;20029;-74
2023/01/19 12:54:58;;;;;;;16.83;8.77;;;20.10;56.00;;;;;;5026982;28;20029;-74
2023/01/19 12:57:36;;;;;;;17.70;9.18;;;20.10;56.00;;;;;;5026033;28;20030;-75
2023/01/19 13:00:35;;;;;;;17.10;8.85;;;20.10;55.90;;;;;;5023844;28;20030;-75